Time;durP1;ratioP1;P1;durP2;ratioP2;P2;SDS_P1;SDS_P2;PMS_P1;PMS_P2;Temp;Humidity;BMP_temperature;BMP_pressure;BME280_temperature;BME280_humidity;BME280_pressure;Samples;Min_cycle;Max_cycle;Signal;HPM_P1;HPM_P2
2021/03/22 00:00:13;;;;;;;1.50;1.50;;;7.00;79.50;;;;;;5070522;28;20858;-67
2021/03/22 00:02:40;;;;;;;1.50;1.50;;;7.00;79.30;;;;;;5061687;28;20237;-67
2021/03/22 00:05:09;;;;;;;1.70;1.70;;;7.00;79.10;;;;;;5068930;28;20562;-67
2021/03/22 00:07:36;;;;;;;1.77;1.77;;;7.00;79.30;;;;;;5063274;28;20866;-67
2021/03/22 00:10:03;;;;;;;1.80;1.70;;;7.00;79.30;;;;;;5061144;28;20224;-68
2021/03/22 00:12:30;;;;;;;1.50;1.50;;;7.00;79.30;;;;;;5064575;28;20214;-68
2021/03/22 00:14:57;;;;;;;1.52;1.52;;;7.00;79.50;;;;;;5065232;28;20260;-68
2021/03/22 00:17:23;;;;;;;1.77;1.67;;;7.00;79.10;;;;;;5060322;28;20273;-68
2021/03/22 00:19:50;;;;;;;1.60;1.60;;;7.00;79.40;;;;;;5063587;28;20211;-68
2021/03/22 00:22:17;;;;;;;1.50;1.50;;;7.00;79.40;;;;;;5065427;28;20225;-67
2021/03/22 00:24:44;;;;;;;1.48;1.48;;;7.00;79.40;;;;;;5061441;28;20226;-67
2021/03/22 00:27:10;;;;;;;1.80;1.80;;;7.00;79.10;;;;;;5064203;28;20190;-68
2021/03/22 00:29:37;;;;;;;1.63;1.63;;;7.00;79.20;;;;;;5064110;28;20211;-67
2021/03/22 00:32:05;;;;;;;1.83;1.83;;;7.00;79.30;;;;;;5063655;28;20649;-68
2021/03/22 00:34:32;;;;;;;1.67;1.67;;;7.00;78.90;;;;;;5062663;28;20214;-67
2021/03/22 00:36:58;;;;;;;1.50;1.50;;;7.00;78.70;;;;;;5067333;28;20676;-67
2021/03/22 00:39:26;;;;;;;1.60;1.60;;;6.90;78.90;;;;;;5063505;28;20758;-67
2021/03/22 00:41:52;;;;;;;1.70;1.70;;;6.90;79.00;;;;;;5064643;28;20191;-67
2021/03/22 00:44:19;;;;;;;1.50;1.40;;;6.90;78.70;;;;;;5061657;28;20218;-67
2021/03/22 00:46:45;;;;;;;1.73;1.73;;;7.00;78.70;;;;;;5062467;28;20217;-67
2021/03/22 00:49:12;;;;;;;1.80;1.70;;;7.00;78.70;;;;;;5066218;28;20279;-68
2021/03/22 00:51:38;;;;;;;1.55;1.50;;;7.00;78.90;;;;;;5063438;28;20239;-67
2021/03/22 00:54:05;;;;;;;1.88;1.80;;;7.00;79.30;;;;;;5076474;22;20722;-89
2021/03/22 00:56:33;;;;;;;1.40;1.40;;;6.90;79.30;;;;;;5067478;28;20205;-87
2021/03/22 00:59:00;;;;;;;1.50;1.50;;;7.00;78.90;;;;;;5065984;28;20296;-89
2021/03/22 01:01:26;;;;;;;1.48;1.48;;;6.90;78.90;;;;;;5064057;28;20206;-87
2021/03/22 01:03:53;;;;;;;1.33;1.33;;;7.00;78.50;;;;;;5065411;28;20240;-88
2021/03/22 01:06:20;;;;;;;1.65;1.65;;;7.00;78.20;;;;;;5066041;28;20214;-87
2021/03/22 01:08:49;;;;;;;1.67;1.65;;;7.00;78.10;;;;;;5065822;28;20712;-85
2021/03/22 01:11:18;;;;;;;1.65;1.65;;;7.00;78.70;;;;;;5062269;28;20209;-87
2021/03/22 01:13:49;;;;;;;1.73;1.65;;;7.00;78.90;;;;;;5063859;28;20722;-90
2021/03/22 01:16:17;;;;;;;1.70;1.60;;;6.90;78.50;;;;;;5070986;28;20285;-89
2021/03/22 01:18:48;;;;;;;1.70;1.60;;;6.90;79.30;;;;;;5064746;28;20230;-89
2021/03/22 01:21:25;;;;;;;1.83;1.75;;;6.90;78.90;;;;;;5066110;28;20201;-88
2021/03/22 01:23:52;;;;;;;1.42;1.42;;;6.90;79.30;;;;;;5068685;28;20222;-88
2021/03/22 01:26:22;;;;;;;1.63;1.63;;;6.90;79.50;;;;;;5064517;28;20194;-89
2021/03/22 01:28:51;;;;;;;1.40;1.40;;;6.90;79.80;;;;;;5070769;28;20218;-88
2021/03/22 01:31:18;;;;;;;1.65;1.55;;;6.90;79.50;;;;;;5066183;28;20562;-87
2021/03/22 01:33:49;;;;;;;1.52;1.52;;;6.90;79.70;;;;;;5062510;28;20225;-89
2021/03/22 01:36:21;;;;;;;1.77;1.70;;;6.90;79.60;;;;;;5066802;28;20197;-86
2021/03/22 01:38:48;;;;;;;1.48;1.48;;;6.90;80.00;;;;;;5066761;28;20210;-89
2021/03/22 01:41:44;;;;;;;1.50;1.50;;;6.90;79.60;;;;;;5068559;28;20199;-84
2021/03/22 01:44:28;;;;;;;1.65;1.60;;;7.00;79.70;;;;;;5042306;28;20226;-86
2021/03/22 01:46:57;;;;;;;2.03;1.95;;;7.00;79.70;;;;;;5067149;28;20198;-87
2021/03/22 01:49:26;;;;;;;1.60;1.60;;;7.00;79.50;;;;;;5064234;28;20224;-84
2021/03/22 01:51:54;;;;;;;1.85;1.75;;;7.00;79.30;;;;;;5062086;28;20288;-88
2021/03/22 01:54:22;;;;;;;2.10;2.00;;;7.00;79.30;;;;;;5069075;28;20298;-87
2021/03/22 01:56:50;;;;;;;1.52;1.50;;;7.00;79.40;;;;;;5065022;28;20187;-89
2021/03/22 01:59:23;;;;;;;1.90;1.80;;;7.00;79.50;;;;;;5072311;28;20554;-87
2021/03/22 02:01:54;;;;;;;1.98;1.88;;;7.00;79.50;;;;;;5067882;28;20922;-89
2021/03/22 02:07:22;;;;;;;1.38;1.38;;;7.10;79.70;;;;;;5062805;28;20221;-88
2021/03/22 02:09:49;;;;;;;2.15;2.05;;;7.10;79.90;;;;;;5066566;28;20210;-88
2021/03/22 02:12:22;;;;;;;2.10;2.00;;;7.10;79.70;;;;;;5065128;28;20205;-88
2021/03/22 02:14:51;;;;;;;1.83;1.73;;;7.10;79.90;;;;;;5064019;28;20225;-88
2021/03/22 02:17:29;;;;;;;1.70;1.60;;;7.10;80.00;;;;;;5064335;28;20201;-88
2021/03/22 02:20:33;;;;;;;1.77;1.67;;;7.10;80.10;;;;;;5064329;28;20214;-87
2021/03/22 02:23:33;;;;;;;2.10;2.00;;;7.10;80.00;;;;;;5041707;28;20198;-87
2021/03/22 02:26:05;;;;;;;2.15;2.05;;;7.10;80.30;;;;;;5043234;28;20305;-88
2021/03/22 02:29:19;;;;;;;2.33;2.20;;;7.10;80.40;;;;;;5063059;28;20218;-84
2021/03/22 02:32:09;;;;;;;2.20;2.10;;;7.10;81.00;;;;;;4960438;28;20206;-89
2021/03/22 02:34:52;;;;;;;1.98;1.88;;;7.10;81.10;;;;;;5059369;28;20224;-87
2021/03/22 02:37:37;;;;;;;1.92;1.83;;;7.10;80.70;;;;;;5066379;28;20269;-87
2021/03/22 02:40:29;;;;;;;1.67;1.58;;;7.10;81.20;;;;;;5064818;28;20257;-88
2021/03/22 02:43:06;;;;;;;2.55;1.45;;;7.10;80.80;;;;;;5064044;28;20187;-87
2021/03/22 02:45:36;;;;;;;1.77;1.67;;;7.00;81.00;;;;;;5050005;28;20197;-88
2021/03/22 02:48:05;;;;;;;1.80;1.80;;;7.00;81.40;;;;;;5065952;28;20233;-89
2021/03/22 02:50:53;;;;;;;1.70;1.60;;;7.00;81.20;;;;;;5075481;28;20198;-88
2021/03/22 02:53:52;;;;;;;1.52;1.50;;;7.00;81.70;;;;;;5065731;28;20225;-88
2021/03/22 02:56:32;;;;;;;1.85;1.85;;;7.00;81.90;;;;;;5068095;28;20198;-87
2021/03/22 02:59:02;;;;;;;1.70;1.70;;;7.00;81.60;;;;;;5068759;28;20434;-89
2021/03/22 03:01:34;;;;;;;1.50;1.50;;;7.00;81.60;;;;;;5072616;28;20648;-88
2021/03/22 03:04:02;;;;;;;1.80;1.70;;;7.00;82.00;;;;;;5069760;28;20225;-89
2021/03/22 03:07:15;;;;;;;1.52;1.52;;;6.90;81.70;;;;;;5068323;28;20224;-87
2021/03/22 03:09:44;;;;;;;1.58;1.58;;;7.00;82.30;;;;;;5068920;28;20217;-88
2021/03/22 03:12:14;;;;;;;1.90;1.80;;;6.90;82.00;;;;;;5070331;28;20194;-88
2021/03/22 03:14:42;;;;;;;2.00;1.90;;;6.90;82.20;;;;;;5067091;28;20222;-87
2021/03/22 03:17:09;;;;;;;1.55;1.55;;;6.90;82.50;;;;;;5073281;28;20697;-89
2021/03/22 03:19:36;;;;;;;1.73;1.73;;;6.90;82.00;;;;;;5070648;28;20210;-87
2021/03/22 03:22:05;;;;;;;1.55;1.45;;;6.90;82.50;;;;;;5070522;28;20663;-88
2021/03/22 03:24:32;;;;;;;2.08;1.98;;;6.90;82.10;;;;;;5067804;28;20291;-87
2021/03/22 03:27:01;;;;;;;1.67;1.67;;;6.90;82.20;;;;;;5065380;28;20289;-88
2021/03/22 03:29:28;;;;;;;1.52;1.52;;;6.80;82.40;;;;;;5071664;28;20218;-87
2021/03/22 03:34:36;;;;;;;1.80;1.70;;;6.80;82.70;;;;;;5070043;28;20220;-86
2021/03/22 03:37:04;;;;;;;1.70;1.70;;;6.80;82.70;;;;;;5071524;28;20194;-89
2021/03/22 03:42:14;;;;;;;1.83;1.73;;;6.80;82.70;;;;;;5076842;28;20663;-88
2021/03/22 03:44:42;;;;;;;1.65;1.65;;;6.80;82.70;;;;;;5072604;28;20605;-87
2021/03/22 03:47:10;;;;;;;1.55;1.55;;;6.70;82.50;;;;;;5068887;28;20297;-87
2021/03/22 03:49:38;;;;;;;1.50;1.50;;;6.70;82.90;;;;;;5071868;28;20221;-87
2021/03/22 03:52:06;;;;;;;1.80;1.70;;;6.70;82.80;;;;;;5055622;28;20659;-86
2021/03/22 03:54:34;;;;;;;1.30;1.30;;;6.60;82.80;;;;;;5054716;28;20214;-86
2021/03/22 03:57:02;;;;;;;1.55;1.55;;;6.60;82.90;;;;;;5061642;28;20202;-88
2021/03/22 03:59:30;;;;;;;1.80;1.70;;;6.60;83.00;;;;;;5068326;28;20232;-89
2021/03/22 04:01:57;;;;;;;1.75;1.75;;;6.60;82.80;;;;;;5083168;28;20209;-86
2021/03/22 04:04:38;;;;;;;1.25;1.25;;;6.50;82.90;;;;;;5055661;28;20222;-86
2021/03/22 04:07:09;;;;;;;1.80;1.80;;;6.50;83.00;;;;;;5048368;28;20190;-87
2021/03/22 04:12:18;;;;;;;1.67;1.58;;;6.40;83.20;;;;;;5070691;28;20206;-89
2021/03/22 04:15:18;;;;;;;1.90;1.88;;;6.30;83.40;;;;;;5074392;28;20613;-88
2021/03/22 04:18:24;;;;;;;1.80;1.70;;;6.20;83.40;;;;;;5060848;28;20220;-89
2021/03/22 04:24:07;;;;;;;1.90;1.90;;;6.20;84.10;;;;;;5061134;28;20190;-87
2021/03/22 04:26:46;;;;;;;1.30;1.30;;;6.00;84.80;;;;;;5049594;28;20209;-85
2021/03/22 04:29:24;;;;;;;1.92;1.83;;;5.90;85.40;;;;;;5077484;28;20247;-87
2021/03/22 04:35:12;;;;;;;1.33;1.33;;;5.70;85.90;;;;;;5114994;28;20221;-86
2021/03/22 04:37:43;;;;;;;1.80;1.75;;;5.60;86.30;;;;;;5095402;28;20652;-86
2021/03/22 04:40:18;;;;;;;1.73;1.63;;;5.60;86.30;;;;;;5078347;28;20215;-84
2021/03/22 04:42:50;;;;;;;1.50;1.50;;;5.70;85.30;;;;;;5084812;28;20202;-88
2021/03/22 04:45:30;;;;;;;1.70;1.60;;;5.90;84.70;;;;;;5067677;28;20222;-86
2021/03/22 04:47:58;;;;;;;1.58;1.58;;;6.00;84.20;;;;;;5014566;22;20579;-74
2021/03/22 04:50:26;;;;;;;1.92;1.83;;;6.00;84.00;;;;;;4968298;28;20234;-75
2021/03/22 04:52:53;;;;;;;1.58;1.58;;;6.00;85.20;;;;;;4965316;28;20211;-74
2021/03/22 04:55:22;;;;;;;1.92;1.80;;;6.00;84.40;;;;;;5030085;28;20220;-74
2021/03/22 04:57:49;;;;;;;1.70;1.67;;;6.00;84.00;;;;;;5030936;28;20203;-76
2021/03/22 05:00:19;;;;;;;1.67;1.67;;;6.10;84.00;;;;;;5036455;28;20215;-75
2021/03/22 05:02:46;;;;;;;2.00;1.90;;;6.10;83.70;;;;;;5021873;28;20196;-73
2021/03/22 05:05:13;;;;;;;1.95;1.85;;;6.10;83.90;;;;;;5032432;28;20233;-74
2021/03/22 05:07:39;;;;;;;1.73;1.65;;;6.10;84.00;;;;;;5032720;28;20195;-74
2021/03/22 05:10:11;;;;;;;1.55;1.55;;;6.10;84.20;;;;;;5026244;28;20799;-74
2021/03/22 05:12:37;;;;;;;1.60;1.50;;;6.10;84.00;;;;;;5030531;28;20668;-74
2021/03/22 05:15:05;;;;;;;1.55;1.50;;;6.10;83.80;;;;;;5030746;28;20705;-74
2021/03/22 05:17:32;;;;;;;1.92;1.83;;;6.10;83.80;;;;;;5032247;28;20318;-75
2021/03/22 05:19:58;;;;;;;1.92;1.83;;;6.20;83.90;;;;;;5034194;28;20225;-75
2021/03/22 05:22:25;;;;;;;1.63;1.63;;;6.10;83.50;;;;;;5032550;28;20196;-76
2021/03/22 05:24:51;;;;;;;1.70;1.70;;;6.10;83.60;;;;;;5031960;28;20219;-76
2021/03/22 05:27:19;;;;;;;1.73;1.63;;;6.10;83.90;;;;;;5026656;28;20200;-76
2021/03/22 05:29:45;;;;;;;2.00;1.95;;;6.10;83.70;;;;;;5028034;28;20644;-76
2021/03/22 05:32:30;;;;;;;1.77;1.77;;;6.10;83.90;;;;;;5037060;28;20669;-76
2021/03/22 05:34:57;;;;;;;1.85;1.77;;;6.10;84.10;;;;;;5032094;28;20461;-74
2021/03/22 05:37:24;;;;;;;1.67;1.58;;;6.10;84.40;;;;;;5023386;28;20298;-74
2021/03/22 05:39:51;;;;;;;2.10;2.00;;;6.10;84.00;;;;;;5034935;28;20215;-75
2021/03/22 05:42:29;;;;;;;1.83;1.73;;;6.20;84.00;;;;;;5029108;28;20204;-73
2021/03/22 05:45:00;;;;;;;2.60;2.30;;;6.20;83.60;;;;;;5027556;28;20921;-74
2021/03/22 05:47:34;;;;;;;2.00;1.90;;;6.20;83.60;;;;;;5030197;28;20226;-76
2021/03/22 05:50:08;;;;;;;2.22;2.13;;;6.30;83.30;;;;;;5028951;28;20285;-77
2021/03/22 05:53:07;;;;;;;2.13;2.03;;;6.20;83.50;;;;;;5032782;28;20209;-75
2021/03/22 05:55:53;;;;;;;1.95;1.85;;;6.20;83.20;;;;;;5041088;28;20210;-76
2021/03/22 05:58:46;;;;;;;2.03;1.92;;;6.30;83.20;;;;;;5032143;28;20245;-76
2021/03/22 06:01:26;;;;;;;1.95;1.88;;;6.20;83.00;;;;;;5032184;28;20219;-76
2021/03/22 06:03:57;;;;;;;2.03;2.03;;;6.20;83.80;;;;;;5030191;28;20238;-76
2021/03/22 06:06:28;;;;;;;3.47;2.47;;;6.10;83.80;;;;;;5037242;28;20219;-76
2021/03/22 06:09:02;;;;;;;2.40;2.30;;;6.10;84.30;;;;;;5034515;28;20633;-76
2021/03/22 06:11:46;;;;;;;2.10;2.00;;;6.20;83.70;;;;;;5031840;28;20526;-75
2021/03/22 06:14:23;;;;;;;1.70;1.70;;;6.40;82.90;;;;;;5029474;28;20772;-76
2021/03/22 06:16:57;;;;;;;2.17;2.08;;;6.70;82.40;;;;;;5033199;28;20203;-76
2021/03/22 06:19:23;;;;;;;2.08;1.98;;;6.90;81.70;;;;;;5033781;28;20669;-76
2021/03/22 06:21:51;;;;;;;2.00;1.90;;;7.20;81.30;;;;;;5029623;28;20191;-76
2021/03/22 06:24:19;;;;;;;2.10;2.00;;;7.80;81.30;;;;;;5029402;28;20219;-74
2021/03/22 06:26:48;;;;;;;5.03;3.72;;;8.20;80.70;;;;;;5040384;28;20718;-73
2021/03/22 06:29:27;;;;;;;3.72;3.53;;;8.60;81.00;;;;;;5032020;28;20235;-75
2021/03/22 06:31:59;;;;;;;3.05;2.85;;;9.00;80.90;;;;;;5032281;28;20575;-73
2021/03/22 06:34:36;;;;;;;2.80;2.60;;;9.40;80.40;;;;;;5024529;28;20955;-75
2021/03/22 06:37:03;;;;;;;2.50;2.30;;;9.80;79.80;;;;;;5033254;28;20218;-74
2021/03/22 06:39:29;;;;;;;2.70;2.50;;;10.20;79.00;;;;;;5030240;28;20226;-76
2021/03/22 06:41:56;;;;;;;2.42;2.22;;;10.40;78.20;;;;;;5036735;28;20256;-74
2021/03/22 06:44:40;;;;;;;1.90;1.80;;;10.90;78.00;;;;;;5034042;28;21269;-75
2021/03/22 06:47:20;;;;;;;2.20;2.10;;;11.20;76.80;;;;;;5033991;28;21563;-75
2021/03/22 06:49:49;;;;;;;2.90;1.90;;;11.50;76.00;;;;;;5032901;28;20328;-75
2021/03/22 06:52:20;;;;;;;2.75;1.98;;;11.60;76.20;;;;;;5029602;28;20195;-77
2021/03/22 06:54:50;;;;;;;1.63;1.63;;;11.40;74.00;;;;;;5056459;22;20214;-65
2021/03/22 06:57:19;;;;;;;2.08;1.88;;;11.40;74.80;;;;;;5044945;28;20453;-67
2021/03/22 07:00:12;;;;;;;1.80;1.70;;;11.20;74.30;;;;;;5045593;28;20222;-68
2021/03/22 07:02:44;;;;;;;1.83;1.73;;;11.20;73.80;;;;;;5043733;28;20199;-68
2021/03/22 07:05:27;;;;;;;1.98;1.83;;;11.30;74.40;;;;;;5043954;28;20980;-67
2021/03/22 07:07:56;;;;;;;1.95;1.80;;;11.30;73.60;;;;;;5047384;28;20210;-67
2021/03/22 07:10:24;;;;;;;1.73;1.63;;;11.40;73.70;;;;;;5046596;28;20222;-70
2021/03/22 07:13:13;;;;;;;2.53;2.33;;;11.40;73.00;;;;;;5046639;28;20256;-68
2021/03/22 07:15:41;;;;;;;2.20;2.00;;;11.60;72.90;;;;;;5044927;28;20215;-66
2021/03/22 07:18:14;;;;;;;1.90;1.80;;;11.70;72.80;;;;;;5036346;28;20660;-67
2021/03/22 07:20:42;;;;;;;2.10;1.90;;;11.80;73.40;;;;;;5047093;28;20219;-67
2021/03/22 07:23:38;;;;;;;2.22;2.00;;;12.00;72.10;;;;;;5043824;28;20199;-68
2021/03/22 07:26:12;;;;;;;1.98;1.42;;;12.10;71.90;;;;;;5039247;28;20222;-66
2021/03/22 07:28:50;;;;;;;2.10;2.00;;;12.10;70.30;;;;;;5041894;28;20206;-66
2021/03/22 07:31:26;;;;;;;2.10;1.90;;;12.20;71.00;;;;;;5037045;28;20227;-67
2021/03/22 07:34:07;;;;;;;3.38;2.38;;;12.50;70.90;;;;;;5033841;28;21113;-65
2021/03/22 07:36:45;;;;;;;2.10;1.95;;;12.60;69.70;;;;;;5035812;28;20233;-67
2021/03/22 07:39:43;;;;;;;1.75;1.65;;;12.70;69.50;;;;;;5040185;28;20195;-68
2021/03/22 07:42:36;;;;;;;2.17;1.98;;;12.90;69.10;;;;;;5040632;28;20221;-68
2021/03/22 07:45:48;;;;;;;1.88;1.77;;;13.20;68.90;;;;;;5035316;28;20223;-69
2021/03/22 07:48:50;;;;;;;1.70;1.60;;;13.30;68.50;;;;;;5038221;28;20747;-69
2021/03/22 07:51:53;;;;;;;1.63;1.52;;;13.40;67.70;;;;;;5050054;28;20205;-69
2021/03/22 07:54:33;;;;;;;2.47;2.05;;;13.50;67.80;;;;;;5034665;28;20225;-69
2021/03/22 07:57:08;;;;;;;2.03;1.83;;;13.50;67.40;;;;;;5046161;28;20207;-69
2021/03/22 07:59:43;;;;;;;2.00;1.80;;;13.50;67.80;;;;;;5040127;28;20199;-70
2021/03/22 08:02:31;;;;;;;2.65;1.80;;;13.50;67.50;;;;;;5043532;28;20290;-70
2021/03/22 08:05:07;;;;;;;1.75;1.52;;;13.70;67.60;;;;;;5047285;28;20250;-67
2021/03/22 08:07:53;;;;;;;1.80;1.70;;;13.80;67.20;;;;;;5046535;28;20329;-69
2021/03/22 08:10:41;;;;;;;2.22;1.30;;;13.90;67.10;;;;;;5041497;28;20354;-66
2021/03/22 08:13:23;;;;;;;1.60;1.50;;;14.00;66.90;;;;;;5047374;28;20712;-70
2021/03/22 08:15:59;;;;;;;2.97;1.45;;;14.20;66.80;;;;;;5047291;28;20214;-67
2021/03/22 08:18:32;;;;;;;1.70;1.60;;;14.20;66.20;;;;;;5046919;28;20222;-67
2021/03/22 08:21:07;;;;;;;1.75;1.65;;;14.40;66.20;;;;;;5048433;28;20199;-67
2021/03/22 08:23:47;;;;;;;2.90;1.67;;;14.40;65.40;;;;;;5048822;28;20226;-67
2021/03/22 08:26:22;;;;;;;1.70;1.60;;;14.40;65.00;;;;;;5043674;28;20215;-68
2021/03/22 08:29:00;;;;;;;3.65;1.90;;;14.40;65.40;;;;;;5043108;28;20653;-67
2021/03/22 08:31:34;;;;;;;1.52;1.40;;;14.50;65.40;;;;;;5048465;28;20195;-66
2021/03/22 08:34:06;;;;;;;2.15;1.95;;;14.60;64.90;;;;;;5047243;28;20256;-68
2021/03/22 08:36:43;;;;;;;5.82;4.43;;;14.70;65.00;;;;;;5048618;28;20644;-67
2021/03/22 08:39:20;;;;;;;3.17;2.40;;;14.80;65.10;;;;;;5046022;28;20505;-66
2021/03/22 08:41:55;;;;;;;1.88;1.70;;;15.00;64.50;;;;;;5046023;28;20191;-67
2021/03/22 08:44:26;;;;;;;3.30;3.00;;;15.10;64.50;;;;;;5047964;28;20708;-67
2021/03/22 08:46:59;;;;;;;1.63;1.52;;;15.20;64.40;;;;;;5046380;28;20708;-67
2021/03/22 08:49:44;;;;;;;1.48;1.38;;;15.20;64.10;;;;;;5044360;28;20227;-67
2021/03/22 08:52:24;;;;;;;2.05;1.70;;;15.30;63.60;;;;;;5039886;28;20775;-67
2021/03/22 08:55:01;;;;;;;1.15;1.10;;;15.30;64.00;;;;;;5044120;28;20218;-67
2021/03/22 08:57:32;;;;;;;2.60;1.60;;;15.40;63.60;;;;;;5049409;28;20198;-67
2021/03/22 09:00:27;;;;;;;1.48;1.38;;;15.50;63.40;;;;;;5047932;28;20939;-67
2021/03/22 09:02:56;;;;;;;2.53;1.65;;;15.50;61.90;;;;;;5044509;28;20199;-67
2021/03/22 09:05:26;;;;;;;1.48;1.38;;;15.40;62.60;;;;;;5051823;28;20711;-67
2021/03/22 09:08:19;;;;;;;1.60;1.35;;;15.50;62.80;;;;;;5047877;28;20206;-67
2021/03/22 09:13:49;;;;;;;1.70;1.20;;;15.80;62.60;;;;;;1478793;26;20227;-82
2021/03/22 09:16:38;;;;;;;1.42;1.25;;;15.50;62.60;;;;;;5038149;28;20216;-84
2021/03/22 09:19:41;;;;;;;2.10;1.35;;;15.30;62.30;;;;;;5047774;28;20773;-84
2021/03/22 09:22:43;;;;;;;1.48;1.30;;;15.40;62.70;;;;;;5043753;28;20241;-82
2021/03/22 09:25:13;;;;;;;4.00;1.48;;;15.60;62.30;;;;;;5042043;28;20218;-82
2021/03/22 09:27:40;;;;;;;4.50;1.30;;;15.00;61.60;;;;;;5047159;28;20209;-83
2021/03/22 09:30:34;;;;;;;3.20;1.58;;;14.90;62.60;;;;;;5046388;28;20235;-84
2021/03/22 09:33:01;;;;;;;2.35;1.45;;;14.90;62.60;;;;;;5037765;28;20234;-82
2021/03/22 09:35:50;;;;;;;4.43;1.50;;;14.30;62.70;;;;;;5042556;28;20709;-86
2021/03/22 09:38:41;;;;;;;1.60;1.50;;;13.80;63.70;;;;;;5038013;28;20892;-84
2021/03/22 09:41:09;;;;;;;1.63;1.52;;;14.30;64.30;;;;;;5043710;28;20222;-84
2021/03/22 09:43:41;;;;;;;1.83;1.63;;;14.90;63.70;;;;;;5043333;28;20206;-86
2021/03/22 09:46:47;;;;;;;2.58;1.27;;;15.20;62.70;;;;;;5042358;28;20222;-84
2021/03/22 09:49:27;;;;;;;1.70;1.60;;;15.50;62.30;;;;;;5014162;28;20224;-84
2021/03/22 09:52:15;;;;;;;2.13;1.58;;;15.50;61.70;;;;;;5042355;28;20218;-81
2021/03/22 09:54:44;;;;;;;2.17;1.75;;;15.50;61.70;;;;;;5042457;28;20202;-83
2021/03/22 09:57:35;;;;;;;1.70;1.20;;;15.60;61.90;;;;;;5042328;28;20204;-85
2021/03/22 10:00:27;;;;;;;2.45;1.60;;;16.00;62.20;;;;;;5047476;28;20226;-84
2021/03/22 10:02:56;;;;;;;1.67;1.35;;;16.10;61.40;;;;;;5036456;28;20186;-83
2021/03/22 10:05:26;;;;;;;8.20;1.25;;;16.40;61.20;;;;;;5057785;28;20218;-83
2021/03/22 10:08:13;;;;;;;1.52;1.30;;;16.20;60.20;;;;;;5053077;28;20217;-81
2021/03/22 10:10:42;;;;;;;1.30;1.20;;;16.20;60.20;;;;;;5055359;28;20683;-83
2021/03/22 10:13:18;;;;;;;2.40;1.20;;;16.30;60.60;;;;;;5057581;28;20202;-82
2021/03/22 10:15:51;;;;;;;3.22;1.52;;;16.10;60.30;;;;;;5061744;28;20226;-82
2021/03/22 10:18:30;;;;;;;1.50;1.30;;;16.10;60.40;;;;;;5058784;28;20210;-83
2021/03/22 10:21:08;;;;;;;1.52;1.42;;;16.30;61.10;;;;;;5063033;28;20222;-81
2021/03/22 10:23:40;;;;;;;1.40;1.30;;;16.60;60.20;;;;;;5063361;28;20218;-81
2021/03/22 10:26:10;;;;;;;1.30;1.20;;;16.60;60.40;;;;;;5070129;28;20247;-82
2021/03/22 10:28:40;;;;;;;1.27;1.00;;;16.60;60.00;;;;;;5069861;28;20214;-80
2021/03/22 10:31:16;;;;;;;1.38;1.27;;;16.70;59.80;;;;;;5059466;28;20258;-81
2021/03/22 10:33:48;;;;;;;1.17;1.08;;;16.70;60.00;;;;;;5064078;28;20199;-82
2021/03/22 10:36:24;;;;;;;3.63;1.20;;;16.80;59.90;;;;;;5062489;28;20223;-80
2021/03/22 10:38:53;;;;;;;2.40;1.20;;;16.70;59.00;;;;;;5077673;28;20194;-80
2021/03/22 10:41:27;;;;;;;1.23;1.02;;;16.60;59.30;;;;;;5077298;28;20238;-81
2021/03/22 10:43:58;;;;;;;1.52;1.33;;;16.70;60.10;;;;;;5075132;28;20256;-81
2021/03/22 10:46:26;;;;;;;1.35;1.25;;;16.90;59.70;;;;;;5079175;28;20221;-81
2021/03/22 10:49:01;;;;;;;1.92;1.10;;;17.00;59.80;;;;;;5078071;28;20194;-80
2021/03/22 10:51:40;;;;;;;1.67;1.35;;;17.00;59.80;;;;;;5074724;28;20218;-81
2021/03/22 10:54:10;;;;;;;3.38;1.38;;;16.80;59.80;;;;;;5069101;28;20202;-81
2021/03/22 10:56:42;;;;;;;2.75;1.10;;;16.80;59.60;;;;;;5071969;28;20226;-81
2021/03/22 10:59:16;;;;;;;2.28;1.25;;;17.00;59.60;;;;;;5069256;28;20728;-79
2021/03/22 11:01:43;;;;;;;2.60;1.38;;;16.90;59.30;;;;;;5072894;28;20231;-81
2021/03/22 11:04:17;;;;;;;1.17;1.08;;;16.80;59.40;;;;;;5067114;28;20209;-81
2021/03/22 11:06:46;;;;;;;2.17;1.10;;;16.80;59.40;;;;;;5058888;28;20755;-79
2021/03/22 11:09:29;;;;;;;7.22;1.38;;;16.90;60.10;;;;;;5066355;28;20250;-80
2021/03/22 11:11:57;;;;;;;2.10;1.35;;;16.90;59.90;;;;;;5071487;28;20215;-82
2021/03/22 11:14:27;;;;;;;2.80;1.40;;;16.80;58.50;;;;;;5059453;28;20207;-81
2021/03/22 11:16:54;;;;;;;1.50;1.30;;;16.60;58.90;;;;;;5054885;28;20226;-80
2021/03/22 11:19:31;;;;;;;1.27;1.20;;;16.90;60.00;;;;;;5068333;28;20197;-80
2021/03/22 11:22:00;;;;;;;1.63;1.17;;;16.80;59.70;;;;;;5059905;28;20445;-81
2021/03/22 11:24:38;;;;;;;1.83;1.30;;;16.90;59.90;;;;;;5075237;28;20203;-80
2021/03/22 11:27:07;;;;;;;2.80;1.20;;;17.00;59.40;;;;;;5061047;28;20276;-80
2021/03/22 11:30:04;;;;;;;3.63;1.30;;;17.00;59.70;;;;;;5075930;28;20206;-81
2021/03/22 11:32:32;;;;;;;1.42;1.20;;;16.80;58.80;;;;;;5065677;28;20227;-81
2021/03/22 11:35:11;;;;;;;1.30;1.20;;;16.80;59.00;;;;;;5069125;28;20209;-81
2021/03/22 11:37:39;;;;;;;2.92;1.17;;;16.70;58.80;;;;;;5072550;28;20206;-80
2021/03/22 11:40:16;;;;;;;3.50;1.10;;;16.90;58.70;;;;;;5076079;28;20199;-82
2021/03/22 11:42:54;;;;;;;6.70;1.75;;;16.90;58.10;;;;;;5064407;28;20230;-80
2021/03/22 11:45:35;;;;;;;2.95;1.48;;;16.60;58.50;;;;;;5067700;28;20199;-80
2021/03/22 11:48:03;;;;;;;2.55;1.33;;;16.60;58.70;;;;;;5055632;28;20227;-80
2021/03/22 11:50:40;;;;;;;5.47;1.65;;;16.60;58.60;;;;;;5068424;22;20240;-75
2021/03/22 11:53:10;;;;;;;2.45;1.33;;;16.60;58.50;;;;;;5028292;28;20220;-76
2021/03/22 11:55:40;;;;;;;1.15;1.00;;;16.60;59.00;;;;;;5028651;28;20762;-75
2021/03/22 11:58:27;;;;;;;1.20;1.10;;;16.70;59.00;;;;;;5023514;28;20781;-75
2021/03/22 12:00:55;;;;;;;1.95;1.20;;;16.70;58.70;;;;;;5023264;28;20192;-76
2021/03/22 12:03:27;;;;;;;4.53;1.50;;;16.80;58.90;;;;;;5020496;28;20227;-76
2021/03/22 12:06:10;;;;;;;1.38;1.08;;;16.80;58.80;;;;;;5016281;28;20218;-76
2021/03/22 12:08:39;;;;;;;1.30;1.20;;;16.90;59.10;;;;;;5021920;28;20901;-75
2021/03/22 12:11:09;;;;;;;2.45;1.00;;;16.90;58.30;;;;;;5022969;28;20212;-75
2021/03/22 12:13:36;;;;;;;1.50;1.20;;;16.90;58.30;;;;;;5021386;28;20520;-76
2021/03/22 12:16:04;;;;;;;3.45;1.25;;;16.80;58.20;;;;;;5023306;28;20199;-75
2021/03/22 12:18:34;;;;;;;1.65;1.30;;;16.80;58.80;;;;;;5025179;28;20216;-76
2021/03/22 12:21:01;;;;;;;1.77;1.33;;;16.80;58.70;;;;;;5022314;28;20192;-74
2021/03/22 12:23:28;;;;;;;7.72;3.17;;;16.70;58.30;;;;;;5026195;28;20231;-75
2021/03/22 12:25:54;;;;;;;3.88;3.58;;;16.70;58.60;;;;;;5023174;28;20208;-76
2021/03/22 12:28:21;;;;;;;2.60;1.58;;;16.60;58.40;;;;;;5017950;28;20231;-76
2021/03/22 12:30:47;;;;;;;1.35;1.25;;;16.50;58.10;;;;;;5013121;28;20212;-75
2021/03/22 12:33:25;;;;;;;1.73;1.52;;;16.40;58.30;;;;;;5016747;28;20500;-74
2021/03/22 12:35:52;;;;;;;4.53;1.25;;;16.20;57.90;;;;;;5020001;28;20196;-76
2021/03/22 12:38:19;;;;;;;2.05;1.15;;;16.20;58.00;;;;;;5020973;28;20632;-76
2021/03/22 12:40:46;;;;;;;1.50;1.00;;;16.20;57.60;;;;;;5024356;28;20203;-75
2021/03/22 12:43:22;;;;;;;1.10;1.10;;;16.20;58.20;;;;;;5023574;28;20225;-76
2021/03/22 12:45:50;;;;;;;1.17;1.08;;;16.30;57.60;;;;;;5021551;28;20195;-76
2021/03/22 12:48:17;;;;;;;1.10;1.00;;;16.20;58.50;;;;;;5019647;28;20223;-77
2021/03/22 12:50:45;;;;;;;1.30;1.20;;;16.20;58.20;;;;;;5024234;28;21940;-77
2021/03/22 12:53:13;;;;;;;1.30;1.20;;;16.10;58.00;;;;;;5023016;28;20229;-76
2021/03/22 12:55:40;;;;;;;1.95;1.30;;;16.10;58.10;;;;;;5023815;28;20604;-76
2021/03/22 12:58:15;;;;;;;1.17;1.08;;;16.10;58.30;;;;;;5025749;28;20231;-76
2021/03/22 13:00:43;;;;;;;2.90;1.25;;;16.30;58.50;;;;;;5022050;28;20196;-77
2021/03/22 13:03:13;;;;;;;1.83;1.20;;;16.50;58.80;;;;;;5023663;28;20258;-77
2021/03/22 13:05:40;;;;;;;2.92;1.02;;;16.40;57.80;;;;;;5019835;28;20195;-76
2021/03/22 13:08:07;;;;;;;1.10;1.10;;;16.30;58.40;;;;;;5014659;28;20222;-75
2021/03/22 13:10:35;;;;;;;1.23;1.13;;;16.40;57.90;;;;;;5016426;28;20212;-76
2021/03/22 13:13:03;;;;;;;1.55;1.25;;;16.30;57.90;;;;;;5018446;28;20235;-76
2021/03/22 13:15:34;;;;;;;0.95;0.90;;;16.20;57.40;;;;;;5025976;28;20196;-76
2021/03/22 13:18:02;;;;;;;1.17;1.08;;;16.10;57.10;;;;;;5014786;28;20230;-75
2021/03/22 13:20:29;;;;;;;2.47;1.20;;;16.00;57.40;;;;;;5018051;28;20196;-76
2021/03/22 13:22:56;;;;;;;1.20;1.10;;;16.00;57.40;;;;;;5021472;28;20528;-76
2021/03/22 13:25:24;;;;;;;1.50;1.20;;;16.00;57.70;;;;;;5023081;28;20291;-74
2021/03/22 13:27:51;;;;;;;1.02;0.88;;;15.90;57.50;;;;;;5014768;28;20692;-76
2021/03/22 13:30:21;;;;;;;3.25;1.27;;;15.90;57.70;;;;;;5020780;28;20222;-75
2021/03/22 13:32:48;;;;;;;1.00;1.00;;;16.00;57.30;;;;;;5024444;28;20257;-76
2021/03/22 13:35:17;;;;;;;1.15;1.15;;;15.90;57.20;;;;;;5012852;28;20207;-76
2021/03/22 13:37:44;;;;;;;3.67;3.38;;;15.90;57.30;;;;;;5018918;28;20234;-76
2021/03/22 13:40:13;;;;;;;3.28;1.20;;;15.80;56.90;;;;;;5017049;28;20184;-75
2021/03/22 13:42:40;;;;;;;1.70;1.20;;;15.70;57.10;;;;;;5011231;28;20223;-75
2021/03/22 13:45:12;;;;;;;1.13;1.10;;;15.70;57.10;;;;;;5021833;28;20653;-76
2021/03/22 13:47:38;;;;;;;0.82;0.82;;;15.70;57.10;;;;;;5018050;28;20265;-74